Nossa Senhora do Socorro, Brazil
Current Conditions -  °F | °C
As of 4:00 PM on Monday 22 Dec 2014 (Local Time) from SBAR Reporting Station
Scattered Clouds Scattered Clouds  
Wind Chill: 81°   Ceiling: Unl
Heat Index: 85°   Visibility: 6mi
Dew Point: 72°   Wind: 12mph
Humidity: 74%   Direction: 120°ESE
Pressure: 29.88"   Gusts: NA
Location:  10.86°S, 37.13°W
Report Text: SBAR 221900Z 12010KT 9999 SCT016 27/22 Q1012
Loading
Personal Weather Stations






























Interactive Weather Map New forecast layout! Learn more

10-Day Weather Forecast

Advertisements
Track Severe Weather on mobile